Norman Wells Airport
CYVQ : now visible

Airfield :











YOU CAN JOIN US ON...

 
LOGIN :

Register | Disclaimer

   EN    FR    IT 

 









Legend :    VFR   Marginal VFR   IFR   Intensive IFR   Very Intensive IFR
Visi :
Ceiling :
>= 8 km
>= 3000ft
5 to 8 km
1000 to 3000 ft
1500m to 5 km
500 to 1000 ft
800 to 1500m
200 to 500 ft
< 800m
< 200 ft
Symbols :   Thunderstorms  Fog  Heavy snow  Heavy precipitations  Wind > 20 kt






- Airport Elevation : 238 ft
- IATA code : YVQ


CYVQ - Norman Wells

CURRENT METAR :
  • 151300Z 09002KT 30SM SCT100 SCT180 BKN270 19/13 A2955 RMK AC3AC1CI2 SLP010 DENSITY ALT 1200FT

EXPIRED METARs :
  • 151200Z VRB03KT 30SM FEW095 SCT180 BKN270 15/12 A2954 RMK AC2AC1CI2 SLP006 DENSITY ALT 800FT
  • 151100Z 34003KT 30SM SCT096 SCT180 BKN270 16/11 A2952 RMK AC3AC1CI1 SLP000 DENSITY ALT 900FT
  • 151000Z VRB02KT 30SM SCT094 SCT180 BKN270 18/11 A2951 RMK AC3AC1CI1 SLP996 DENSITY ALT 1100FT
  • 150900Z 27004KT 30SM FEW092 SCT180 SCT270 18/11 A2950 RMK AC2AC1CI1 SLP994 DENSITY ALT 1200FT

TAF TAF CYVQ
Valid from the 15 at 12:00 until the 16 at 00:00 UTC


151141Z 1512/1524 VRB03KT P6SM BKN080
TEMPO 1512/1524 SCT090
BECMG 1516/1518 26008KT RMK NXT FCST BY 151800Z
CZEG FIR / North America



MET'MAP, your aeronautical weather chart ! - Copyright ORBIFLY December 2007 - Disclaimer

ORBIFLY MET'MAP TEAM :

Programming & Development : Alexandra Zaïnal
Original concept : Baudouin d'Aumeries
Technical & hardware support : Manuel Goepfert
Assistance : Marc-Olivier Méhu




SOURCES & CREDITS :

   NOAA       Earth
Advisory